Terminal Aerodrome Forecast
Issued by NWS

Home | Current Version | Previous Version | Text Only | Print | Product List | Glossary On
Versions: 1 2 3 4 5 6 7 8 9 10 11 12 13 14 15 16 17 18 19 20
677
FTUS44 KTSA 221720
TAFMLC
TAF
KMLC 221720Z 2218/2318 12010KT P6SM OVC025
     FM230300 12008KT P6SM OVC025
     FM230900 14008G15KT P6SM OVC015
     FM231600 17010G17KT P6SM SCT025 BKN250=

USA.gov is the U.S. government's official web portal to all federal, state and local government web resources and services.